Time;durP1;ratioP1;P1;durP2;ratioP2;P2;SDS_P1;SDS_P2;PMS_P1;PMS_P2;Temp;Humidity;BMP_temperature;BMP_pressure;BME280_temperature;BME280_humidity;BME280_pressure;Samples;Min_cycle;Max_cycle;Signal;HPM_P1;HPM_P2
2023/08/05 00:00:54;;;;;;;7.10;4.28;;;;;;;;;;5051886;28;20068;-76
2023/08/05 00:03:20;;;;;;;13.40;5.18;;;;;;;;;;5051965;28;20465;-76
2023/08/05 00:05:46;;;;;;;14.93;5.15;;;;;;;;;;5041660;28;20029;-76
2023/08/05 00:08:12;;;;;;;7.85;4.50;;;;;;;;;;5031926;28;20048;-76
2023/08/05 00:10:45;;;;;;;9.32;5.55;;;;;;;;;;5034203;28;20029;-76
2023/08/05 00:13:11;;;;;;;9.10;5.28;;;;;;;;;;5035936;28;20021;-76
2023/08/05 00:15:37;;;;;;;7.32;4.85;;;;;;;;;;5034306;28;20030;-76
2023/08/05 00:18:03;;;;;;;11.63;5.82;;;;;;;;;;5053024;28;20029;-76
2023/08/05 00:20:29;;;;;;;9.32;5.20;;;;;;;;;;5055834;28;20069;-76
2023/08/05 00:22:55;;;;;;;16.10;5.13;;;;;;;;;;5055581;28;20130;-76
2023/08/05 00:25:21;;;;;;;8.73;5.03;;;;;;;;;;5055506;28;20491;-76
2023/08/05 00:27:47;;;;;;;8.00;4.70;;;;;;;;;;5055684;28;20013;-76
2023/08/05 00:30:13;;;;;;;9.15;5.05;;;;;;;;;;5055501;28;20029;-76
2023/08/05 00:32:39;;;;;;;11.63;6.07;;;;;;;;;;5055265;28;20079;-76
2023/08/05 00:35:06;;;;;;;10.95;5.32;;;;;;;;;;5055308;28;20474;-76
2023/08/05 00:37:32;;;;;;;8.05;5.07;;;;;;;;;;5055302;28;20029;-76
2023/08/05 00:39:59;;;;;;;9.52;5.18;;;;;;;;;;5055200;28;20505;-76
2023/08/05 00:42:28;;;;;;;10.90;5.03;;;;;;;;;;5055214;28;20063;-76
2023/08/05 00:44:54;;;;;;;10.57;5.60;;;;;;;;;;5055061;28;20053;-76
2023/08/05 00:47:20;;;;;;;11.40;5.22;;;;;;;;;;5055128;28;20025;-76
2023/08/05 00:49:47;;;;;;;9.25;5.03;;;;;;;;;;5055207;28;20054;-76
2023/08/05 00:52:14;;;;;;;9.70;5.45;;;;;;;;;;5054995;28;20072;-76
2023/08/05 00:54:40;;;;;;;10.40;5.20;;;;;;;;;;5055018;28;20025;-76
2023/08/05 00:57:07;;;;;;;9.35;4.60;;;;;;;;;;5054919;28;20033;-76
2023/08/05 00:59:33;;;;;;;10.77;5.82;;;;;;;;;;5054890;28;20017;-76
2023/08/05 01:01:59;;;;;;;12.75;5.13;;;;;;;;;;5054971;28;20052;-76
2023/08/05 01:04:25;;;;;;;8.77;4.63;;;;;;;;;;5054846;28;20170;-76
2023/08/05 01:06:51;;;;;;;8.63;5.22;;;;;;;;;;5054760;28;20039;-76
2023/08/05 01:09:17;;;;;;;11.45;5.03;;;;;;;;;;5054812;28;20031;-76
2023/08/05 01:11:44;;;;;;;13.77;5.68;;;;;;;;;;5054567;28;20025;-76
2023/08/05 01:14:10;;;;;;;13.07;5.60;;;;;;;;;;5054697;28;20075;-76
2023/08/05 01:16:36;;;;;;;9.00;4.90;;;;;;;;;;5054279;28;20059;-76
2023/08/05 01:19:04;;;;;;;9.90;4.95;;;;;;;;;;5054424;28;20017;-76
2023/08/05 01:21:50;;;;;;;12.32;5.78;;;;;;;;;;5034648;28;20371;-76
2023/08/05 01:24:27;;;;;;;11.90;5.32;;;;;;;;;;5033031;28;20052;-76
2023/08/05 01:26:55;;;;;;;11.20;5.20;;;;;;;;;;5034419;28;20041;-76
2023/08/05 01:29:22;;;;;;;12.20;4.88;;;;;;;;;;5044394;28;20033;-76
2023/08/05 01:31:50;;;;;;;11.23;5.25;;;;;;;;;;5054477;28;20051;-76
2023/08/05 01:34:16;;;;;;;10.30;5.30;;;;;;;;;;5053912;28;20025;-76
2023/08/05 01:36:43;;;;;;;9.57;5.18;;;;;;;;;;5054232;28;20560;-76
2023/08/05 01:39:09;;;;;;;9.57;4.75;;;;;;;;;;5050726;28;20025;-76
2023/08/05 01:41:35;;;;;;;10.35;4.97;;;;;;;;;;5034019;28;20040;-76
2023/08/05 01:44:01;;;;;;;10.68;5.38;;;;;;;;;;5050648;28;20100;-76
2023/08/05 01:46:27;;;;;;;8.90;5.05;;;;;;;;;;5053922;28;20032;-76
2023/08/05 01:48:53;;;;;;;9.77;4.90;;;;;;;;;;5053730;28;20024;-76
2023/08/05 01:51:19;;;;;;;10.05;5.05;;;;;;;;;;5053762;28;20422;-76
2023/08/05 01:53:44;;;;;;;7.15;4.82;;;;;;;;;;5053903;28;20025;-76
2023/08/05 01:56:10;;;;;;;11.48;5.10;;;;;;;;;;5053696;28;20037;-76
2023/08/05 01:58:36;;;;;;;10.88;4.65;;;;;;;;;;5053724;28;20036;-76
2023/08/05 02:01:03;;;;;;;7.18;4.65;;;;;;;;;;5053696;28;20159;-76
2023/08/05 02:03:29;;;;;;;8.55;4.97;;;;;;;;;;5053926;28;20025;-76
2023/08/05 02:05:55;;;;;;;13.55;5.03;;;;;;;;;;5053352;28;20035;-76
2023/08/05 02:08:21;;;;;;;8.30;5.05;;;;;;;;;;5053464;28;20607;-76
2023/08/05 02:10:47;;;;;;;7.88;4.50;;;;;;;;;;5053405;28;20048;-76
2023/08/05 02:13:13;;;;;;;10.95;4.82;;;;;;;;;;5053766;28;20025;-76
2023/08/05 02:15:39;;;;;;;8.18;4.65;;;;;;;;;;5052411;28;20040;-76
2023/08/05 02:18:05;;;;;;;10.00;4.57;;;;;;;;;;5033241;28;20431;-76
2023/08/05 02:20:31;;;;;;;9.90;4.80;;;;;;;;;;5033366;28;20053;-76
2023/08/05 02:22:57;;;;;;;9.88;4.80;;;;;;;;;;5039989;28;20021;-76
2023/08/05 02:25:24;;;;;;;13.25;5.30;;;;;;;;;;5053138;28;20032;-76
2023/08/05 02:27:50;;;;;;;12.15;4.80;;;;;;;;;;5053455;28;20687;-76
2023/08/05 02:30:16;;;;;;;14.05;4.82;;;;;;;;;;5053066;28;20056;-76
2023/08/05 02:32:41;;;;;;;9.05;4.43;;;;;;;;;;5053085;28;20067;-76
2023/08/05 02:35:08;;;;;;;11.45;4.88;;;;;;;;;;5052934;28;20029;-76
2023/08/05 02:37:34;;;;;;;10.70;5.40;;;;;;;;;;5053254;28;20061;-76
2023/08/05 02:40:00;;;;;;;8.93;4.80;;;;;;;;;;5052843;28;20423;-76
2023/08/05 02:42:26;;;;;;;12.52;5.22;;;;;;;;;;5052953;28;20022;-76
2023/08/05 02:44:51;;;;;;;10.43;5.40;;;;;;;;;;5052955;28;20061;-76
2023/08/05 02:47:17;;;;;;;11.30;4.78;;;;;;;;;;5052684;28;20372;-76
2023/08/05 02:49:43;;;;;;;11.15;5.35;;;;;;;;;;5052807;28;20029;-76
2023/08/05 02:52:09;;;;;;;9.18;5.15;;;;;;;;;;5052730;28;20032;-76
2023/08/05 02:54:36;;;;;;;10.70;4.50;;;;;;;;;;5052579;28;20037;-75
2023/08/05 02:57:02;;;;;;;9.98;5.38;;;;;;;;;;5052767;28;20478;-76
2023/08/05 02:59:28;;;;;;;10.18;4.53;;;;;;;;;;5052707;28;20522;-76
2023/08/05 03:01:54;;;;;;;9.57;4.68;;;;;;;;;;5052850;28;20420;-76
2023/08/05 03:04:20;;;;;;;10.23;5.05;;;;;;;;;;5052695;28;20057;-76
2023/08/05 03:06:46;;;;;;;11.20;5.45;;;;;;;;;;5052796;28;20025;-76
2023/08/05 03:09:13;;;;;;;9.60;4.75;;;;;;;;;;5052908;28;20025;-76
2023/08/05 03:11:39;;;;;;;10.45;4.57;;;;;;;;;;5052830;28;20055;-76
2023/08/05 03:14:05;;;;;;;9.13;4.93;;;;;;;;;;5052483;28;20025;-76
2023/08/05 03:16:31;;;;;;;12.65;4.70;;;;;;;;;;5051948;28;20063;-76
2023/08/05 03:18:57;;;;;;;8.48;4.53;;;;;;;;;;5052351;28;20067;-77
2023/08/05 03:21:24;;;;;;;11.02;4.32;;;;;;;;;;5052302;28;20041;-77
2023/08/05 03:23:50;;;;;;;11.75;4.93;;;;;;;;;;5052353;28;20017;-76
2023/08/05 03:26:15;;;;;;;6.95;4.38;;;;;;;;;;5052187;28;20368;-76
2023/08/05 03:28:41;;;;;;;7.10;4.45;;;;;;;;;;5052204;28;20033;-77
2023/08/05 03:31:07;;;;;;;7.65;4.28;;;;;;;;;;5052078;28;20551;-76
2023/08/05 03:33:33;;;;;;;7.82;4.10;;;;;;;;;;5052205;28;20032;-76
2023/08/05 03:35:59;;;;;;;8.65;4.25;;;;;;;;;;5051928;28;20037;-77
2023/08/05 03:38:26;;;;;;;9.02;4.28;;;;;;;;;;5052094;28;20112;-76
2023/08/05 03:40:52;;;;;;;10.75;4.20;;;;;;;;;;5052470;28;20029;-76
2023/08/05 03:43:18;;;;;;;10.35;4.13;;;;;;;;;;5051975;28;20029;-76
2023/08/05 03:45:53;;;;;;;9.18;4.60;;;;;;;;;;5054507;28;20032;-76
2023/08/05 03:48:19;;;;;;;8.75;3.85;;;;;;;;;;5056149;28;20468;-76
2023/08/05 03:50:45;;;;;;;10.25;4.40;;;;;;;;;;5056166;28;20028;-76
2023/08/05 03:53:11;;;;;;;8.55;4.25;;;;;;;;;;5056064;28;20033;-76
2023/08/05 03:55:37;;;;;;;7.88;4.47;;;;;;;;;;5056243;28;20039;-76
2023/08/05 03:58:04;;;;;;;8.82;4.63;;;;;;;;;;5055689;28;20032;-76
2023/08/05 04:00:30;;;;;;;8.35;3.95;;;;;;;;;;5056148;28;20029;-76
2023/08/05 04:02:56;;;;;;;7.30;3.75;;;;;;;;;;5054847;28;20029;-76
2023/08/05 04:05:22;;;;;;;6.20;4.25;;;;;;;;;;5055753;28;20036;-76
2023/08/05 04:07:48;;;;;;;6.97;3.90;;;;;;;;;;5055883;28;20033;-76
2023/08/05 04:10:14;;;;;;;5.97;4.13;;;;;;;;;;5055702;28;20089;-76
2023/08/05 04:12:40;;;;;;;6.72;3.78;;;;;;;;;;5053780;28;20030;-76
2023/08/05 04:15:08;;;;;;;8.20;3.50;;;;;;;;;;5053684;28;20044;-76
2023/08/05 04:17:34;;;;;;;5.63;3.83;;;;;;;;;;5054581;28;20080;-76
2023/08/05 04:20:00;;;;;;;5.88;3.45;;;;;;;;;;5055643;28;20025;-76
2023/08/05 04:22:27;;;;;;;8.77;3.72;;;;;;;;;;5053529;28;20096;-76
2023/08/05 04:24:53;;;;;;;8.77;3.60;;;;;;;;;;5045076;28;20025;-76
2023/08/05 04:27:21;;;;;;;4.28;2.90;;;;;;;;;;5055422;28;20021;-76
2023/08/05 04:29:47;;;;;;;7.55;3.35;;;;;;;;;;5055644;28;20025;-76
2023/08/05 04:32:13;;;;;;;5.97;3.60;;;;;;;;;;5043095;28;20345;-76
2023/08/05 04:34:39;;;;;;;5.70;3.90;;;;;;;;;;5035273;28;20021;-76
2023/08/05 04:37:19;;;;;;;7.30;3.83;;;;;;;;;;5047902;28;20059;-76
2023/08/05 04:39:45;;;;;;;7.68;3.65;;;;;;;;;;5055599;28;20057;-76
2023/08/05 04:42:11;;;;;;;6.13;3.67;;;;;;;;;;5055001;28;20100;-76
2023/08/05 04:44:40;;;;;;;5.57;3.67;;;;;;;;;;5055130;28;20028;-76
2023/08/05 04:47:07;;;;;;;6.55;3.83;;;;;;;;;;5039679;28;20075;-76
2023/08/05 04:49:33;;;;;;;7.03;3.33;;;;;;;;;;5035037;28;20407;-76
2023/08/05 04:51:59;;;;;;;7.78;3.53;;;;;;;;;;5042654;28;20052;-76
2023/08/05 04:54:25;;;;;;;5.45;3.50;;;;;;;;;;5054969;28;20384;-76
2023/08/05 04:56:51;;;;;;;5.38;3.45;;;;;;;;;;5053540;28;20478;-76
2023/08/05 04:59:17;;;;;;;5.93;3.55;;;;;;;;;;5054788;28;20025;-76
2023/08/05 05:01:43;;;;;;;7.00;3.92;;;;;;;;;;5054726;28;20371;-76
2023/08/05 05:04:09;;;;;;;6.38;3.22;;;;;;;;;;5054772;28;20071;-76
2023/08/05 05:06:35;;;;;;;6.55;3.03;;;;;;;;;;5054709;28;20037;-76
2023/08/05 05:09:01;;;;;;;6.82;3.17;;;;;;;;;;5054766;28;20025;-76
2023/08/05 05:11:27;;;;;;;7.10;3.60;;;;;;;;;;5054724;28;20043;-76
2023/08/05 05:13:55;;;;;;;5.20;2.95;;;;;;;;;;5054493;28;20490;-76
2023/08/05 05:16:21;;;;;;;4.95;3.58;;;;;;;;;;5053406;28;20065;-76
2023/08/05 05:18:47;;;;;;;4.85;2.85;;;;;;;;;;5053179;28;20036;-76
2023/08/05 05:21:13;;;;;;;6.30;3.58;;;;;;;;;;5054397;28;20100;-76
2023/08/05 05:23:39;;;;;;;6.68;3.20;;;;;;;;;;5054541;28;20025;-76
2023/08/05 05:26:05;;;;;;;8.93;3.88;;;;;;;;;;5054689;28;20029;-76
2023/08/05 05:28:31;;;;;;;5.35;3.20;;;;;;;;;;5053078;28;20032;-76
2023/08/05 05:30:58;;;;;;;6.70;3.05;;;;;;;;;;5034293;28;20029;-76
2023/08/05 05:33:25;;;;;;;5.13;2.83;;;;;;;;;;5034528;28;20047;-76
2023/08/05 05:35:51;;;;;;;6.22;3.20;;;;;;;;;;5034258;28;20052;-77
2023/08/05 05:38:17;;;;;;;3.65;3.00;;;;;;;;;;5032939;28;20163;-77
2023/08/05 05:40:43;;;;;;;4.82;2.80;;;;;;;;;;5034257;28;20029;-77
2023/08/05 05:43:09;;;;;;;4.88;3.13;;;;;;;;;;5034153;28;20571;-76
2023/08/05 05:45:35;;;;;;;7.03;3.00;;;;;;;;;;5041646;28;20025;-77
2023/08/05 05:48:01;;;;;;;5.03;2.90;;;;;;;;;;5053957;28;20526;-76
2023/08/05 05:50:27;;;;;;;7.45;2.78;;;;;;;;;;5053901;28;20373;-76
2023/08/05 05:52:54;;;;;;;4.82;2.67;;;;;;;;;;5052397;28;20406;-77
2023/08/05 05:55:20;;;;;;;6.13;3.28;;;;;;;;;;5040132;28;20058;-77
2023/08/05 05:57:46;;;;;;;3.60;2.40;;;;;;;;;;5035702;28;20427;-76
2023/08/05 06:00:14;;;;;;;4.30;2.72;;;;;;;;;;5053464;28;20064;-76
2023/08/05 06:02:40;;;;;;;5.72;3.33;;;;;;;;;;5053915;28;20484;-76
2023/08/05 06:05:07;;;;;;;8.90;3.10;;;;;;;;;;5053730;28;20025;-76
2023/08/05 06:07:33;;;;;;;7.35;3.10;;;;;;;;;;5053356;28;20032;-76
2023/08/05 06:09:59;;;;;;;6.60;2.85;;;;;;;;;;5053462;28;20044;-77
2023/08/05 06:12:30;;;;;;;5.22;2.72;;;;;;;;;;5053394;28;20066;-77
2023/08/05 06:14:56;;;;;;;6.13;2.90;;;;;;;;;;5053517;28;20352;-77
2023/08/05 06:17:22;;;;;;;5.10;2.67;;;;;;;;;;5053089;28;20080;-76
2023/08/05 06:19:48;;;;;;;5.95;3.08;;;;;;;;;;5053372;28;20021;-76
2023/08/05 06:22:14;;;;;;;5.10;2.95;;;;;;;;;;5053103;28;20025;-77
2023/08/05 06:24:40;;;;;;;6.45;2.60;;;;;;;;;;5053008;28;20025;-76
2023/08/05 06:27:07;;;;;;;5.90;2.65;;;;;;;;;;5053380;28;20029;-77
2023/08/05 06:29:33;;;;;;;4.68;2.55;;;;;;;;;;5053034;28;20464;-77
2023/08/05 06:31:59;;;;;;;5.15;2.90;;;;;;;;;;5053075;28;20100;-76
2023/08/05 06:34:25;;;;;;;6.35;2.67;;;;;;;;;;5053357;28;20020;-76
2023/08/05 06:36:51;;;;;;;4.82;2.63;;;;;;;;;;5053303;28;20036;-77
2023/08/05 06:39:17;;;;;;;4.03;2.70;;;;;;;;;;5053183;28;20025;-76
2023/08/05 06:41:43;;;;;;;6.40;2.60;;;;;;;;;;5052915;28;20500;-77
2023/08/05 06:44:09;;;;;;;5.68;2.85;;;;;;;;;;5052828;28;20091;-77
2023/08/05 06:46:35;;;;;;;4.72;2.80;;;;;;;;;;5052781;28;20060;-77
2023/08/05 06:49:01;;;;;;;6.20;2.80;;;;;;;;;;5052640;28;20444;-77
2023/08/05 06:51:27;;;;;;;4.25;2.38;;;;;;;;;;5052770;28;20129;-77
2023/08/05 06:53:53;;;;;;;5.03;2.25;;;;;;;;;;5053033;28;20029;-77
2023/08/05 06:56:19;;;;;;;3.92;2.42;;;;;;;;;;5052607;28;20040;-77
2023/08/05 06:58:45;;;;;;;4.68;2.60;;;;;;;;;;5052664;28;20025;-77
2023/08/05 07:01:11;;;;;;;6.70;2.40;;;;;;;;;;5052724;28;20031;-77
2023/08/05 07:03:37;;;;;;;4.35;2.28;;;;;;;;;;5046113;28;20029;-77
2023/08/05 07:06:03;;;;;;;4.18;2.50;;;;;;;;;;5051372;28;20029;-77
2023/08/05 07:08:29;;;;;;;5.72;2.60;;;;;;;;;;5052729;28;20025;-77
2023/08/05 07:10:59;;;;;;;3.03;2.30;;;;;;;;;;5036247;28;20029;-77
2023/08/05 07:13:25;;;;;;;3.17;2.15;;;;;;;;;;5052161;28;20048;-77
2023/08/05 07:15:51;;;;;;;5.78;2.55;;;;;;;;;;5052113;28;20033;-77
2023/08/05 07:18:17;;;;;;;4.00;2.30;;;;;;;;;;5050467;28;20471;-77
2023/08/05 07:20:43;;;;;;;4.35;2.30;;;;;;;;;;5039294;28;20377;-77
2023/08/05 07:23:09;;;;;;;2.92;2.25;;;;;;;;;;5046062;28;20357;-77
2023/08/05 07:25:35;;;;;;;6.65;2.45;;;;;;;;;;5051965;28;20522;-77
2023/08/05 07:28:01;;;;;;;4.50;2.20;;;;;;;;;;5052662;28;20060;-77
2023/08/05 07:30:27;;;;;;;4.18;2.13;;;;;;;;;;5052131;28;20060;-76
2023/08/05 07:32:53;;;;;;;5.68;2.40;;;;;;;;;;5051158;28;20021;-76
2023/08/05 07:35:19;;;;;;;3.10;2.22;;;;;;;;;;5051893;28;20036;-76
2023/08/05 07:37:47;;;;;;;4.50;2.35;;;;;;;;;;5051861;28;20028;-76
2023/08/05 07:40:13;;;;;;;3.83;2.38;;;;;;;;;;5052386;28;20039;-75
2023/08/05 07:42:43;;;;;;;4.25;2.10;;;;;;;;;;5052842;28;20112;-76
2023/08/05 07:45:16;;;;;;;5.05;2.67;;;;;;;;;;5042121;28;20511;-76
2023/08/05 07:47:43;;;;;;;4.57;2.50;;;;;;;;;;5043349;28;20587;-77
2023/08/05 07:50:14;;;;;;;3.45;2.10;;;;;;;;;;5036064;28;20017;-77
2023/08/05 07:52:40;;;;;;;5.35;2.38;;;;;;;;;;5040111;28;20021;-76
2023/08/05 07:55:06;;;;;;;3.92;2.80;;;;;;;;;;5042988;28;20663;-77
2023/08/05 07:57:35;;;;;;;4.60;2.40;;;;;;;;;;5038954;28;20026;-77
2023/08/05 08:00:01;;;;;;;7.22;2.50;;;;;;;;;;5042909;28;20032;-77
2023/08/05 08:02:27;;;;;;;4.18;2.60;;;;;;;;;;5046998;28;20371;-77
2023/08/05 08:04:54;;;;;;;3.60;2.25;;;;;;;;;;5042568;28;20449;-76
2023/08/05 08:07:21;;;;;;;5.25;2.67;;;;;;;;;;5046183;28;20021;-77
2023/08/05 08:09:47;;;;;;;3.95;2.30;;;;;;;;;;5071987;28;20021;-77
2023/08/05 08:12:13;;;;;;;6.53;2.80;;;;;;;;;;5071880;28;20098;-77
2023/08/05 08:14:39;;;;;;;3.45;2.50;;;;;;;;;;5071688;28;20071;-77
2023/08/05 08:17:05;;;;;;;8.93;2.80;;;;;;;;;;5071377;28;20108;-78
2023/08/05 08:19:31;;;;;;;4.00;1.92;;;;;;;;;;5071778;28;20033;-77
2023/08/05 08:21:57;;;;;;;5.93;2.45;;;;;;;;;;5071396;28;20087;-77
2023/08/05 08:24:23;;;;;;;4.38;2.50;;;;;;;;;;5051652;28;20408;-77
2023/08/05 08:26:49;;;;;;;4.55;2.47;;;;;;;;;;5051717;28;20064;-77
2023/08/05 08:29:15;;;;;;;3.92;2.47;;;;;;;;;;5051911;28;20475;-77
2023/08/05 08:31:41;;;;;;;7.18;2.25;;;;;;;;;;5053837;28;20029;-78
2023/08/05 08:34:07;;;;;;;4.60;2.65;;;;;;;;;;5055358;28;20064;-78
2023/08/05 08:36:33;;;;;;;5.82;2.47;;;;;;;;;;5055232;28;20492;-77
2023/08/05 08:38:59;;;;;;;3.85;2.50;;;;;;;;;;5055243;28;20035;-77
2023/08/05 08:41:25;;;;;;;5.25;2.17;;;;;;;;;;5055854;28;20092;-77
2023/08/05 08:43:52;;;;;;;2.88;2.20;;;;;;;;;;5055050;28;20124;-78
2023/08/05 08:46:19;;;;;;;3.45;2.42;;;;;;;;;;5047601;28;20036;-77
2023/08/05 08:48:49;;;;;;;2.83;2.20;;;;;;;;;;5042454;28;20691;-77
2023/08/05 08:51:15;;;;;;;4.35;2.53;;;;;;;;;;5054923;28;20070;-77
2023/08/05 08:53:45;;;;;;;3.50;2.25;;;;;;;;;;5054923;28;20032;-77
2023/08/05 08:56:12;;;;;;;4.78;2.17;;;;;;;;;;5035055;28;20071;-77
2023/08/05 08:58:37;;;;;;;2.50;2.30;;;;;;;;;;5069595;28;20150;-77
2023/08/05 09:01:05;;;;;;;3.22;2.25;;;;;;;;;;5057599;28;20104;-76
2023/08/05 09:03:32;;;;;;;3.08;1.95;;;;;;;;;;5055071;28;20033;-77
2023/08/05 09:05:59;;;;;;;3.80;2.53;;;;;;;;;;5054812;28;20021;-77
2023/08/05 09:08:25;;;;;;;5.25;2.47;;;;;;;;;;5055000;28;20025;-77
2023/08/05 09:10:51;;;;;;;5.22;2.35;;;;;;;;;;5054376;28;20025;-77
2023/08/05 09:13:19;;;;;;;3.85;2.55;;;;;;;;;;5055094;28;20361;-77
2023/08/05 09:15:46;;;;;;;3.50;2.80;;;;;;;;;;5054655;28;20021;-77
2023/08/05 09:18:12;;;;;;;3.17;2.40;;;;;;;;;;5054501;28;20044;-78
2023/08/05 09:20:38;;;;;;;5.38;3.00;;;;;;;;;;5036156;28;20235;-77
2023/08/05 09:23:09;;;;;;;6.07;2.80;;;;;;;;;;5043928;28;20482;-77
2023/08/05 09:25:42;;;;;;;4.28;2.63;;;;;;;;;;5054469;28;20017;-78
2023/08/05 09:28:08;;;;;;;5.30;2.60;;;;;;;;;;5055437;28;20029;-78
2023/08/05 09:30:35;;;;;;;4.85;2.88;;;;;;;;;;5055352;28;20017;-79
2023/08/05 09:33:01;;;;;;;5.55;2.90;;;;;;;;;;5055649;28;20024;-77
2023/08/05 09:35:27;;;;;;;4.30;2.95;;;;;;;;;;5056380;28;20116;-78
2023/08/05 09:37:54;;;;;;;4.70;2.70;;;;;;;;;;5064413;28;20071;-78
2023/08/05 09:40:32;;;;;;;5.03;3.28;;;;;;;;;;5057514;28;20024;-78
2023/08/05 09:43:03;;;;;;;5.13;2.80;;;;;;;;;;5054756;28;20026;-78
2023/08/05 09:45:32;;;;;;;3.80;2.97;;;;;;;;;;5055469;28;20070;-77
2023/08/05 09:48:03;;;;;;;3.88;2.90;;;;;;;;;;5054081;28;20013;-77
2023/08/05 09:50:30;;;;;;;5.35;2.88;;;;;;;;;;5049382;28;20021;-77
2023/08/05 09:52:59;;;;;;;5.72;3.03;;;;;;;;;;5042632;28;20503;-78
2023/08/05 09:55:26;;;;;;;3.38;2.80;;;;;;;;;;5042438;28;20040;-78
2023/08/05 09:57:53;;;;;;;3.90;2.72;;;;;;;;;;5033848;28;20021;-77
2023/08/05 10:00:19;;;;;;;4.05;3.03;;;;;;;;;;5040345;28;20113;-77
2023/08/05 10:02:46;;;;;;;3.45;2.78;;;;;;;;;;5053672;28;20021;-77
2023/08/05 10:05:12;;;;;;;5.53;2.85;;;;;;;;;;5053569;28;20017;-77
2023/08/05 10:07:40;;;;;;;4.55;2.97;;;;;;;;;;5053261;28;20170;-76
2023/08/05 10:10:12;;;;;;;4.38;2.90;;;;;;;;;;5036561;28;20476;-76
2023/08/05 10:12:45;;;;;;;5.50;3.03;;;;;;;;;;5038888;28;20104;-77
2023/08/05 10:15:13;;;;;;;3.75;2.63;;;;;;;;;;5053379;28;20051;-77
2023/08/05 10:17:40;;;;;;;5.05;3.22;;;;;;;;;;5052118;28;20057;-77
2023/08/05 10:20:07;;;;;;;3.75;2.92;;;;;;;;;;5053172;28;20471;-77
2023/08/05 10:22:33;;;;;;;4.68;2.92;;;;;;;;;;5053022;28;20025;-77
2023/08/05 10:25:00;;;;;;;3.70;2.70;;;;;;;;;;5053241;28;20602;-77
2023/08/05 10:27:38;;;;;;;3.08;2.83;;;;;;;;;;5053076;28;20017;-77
2023/08/05 10:30:07;;;;;;;3.95;2.80;;;;;;;;;;5053169;28;20025;-77
2023/08/05 10:32:35;;;;;;;3.53;2.78;;;;;;;;;;5053181;28;20029;-77
2023/08/05 10:35:20;;;;;;;3.20;2.80;;;;;;;;;;5053280;28;20025;-77
2023/08/05 10:37:49;;;;;;;3.13;2.53;;;;;;;;;;5052971;28;20033;-77
2023/08/05 10:40:34;;;;;;;4.82;2.70;;;;;;;;;;5052825;28;20092;-77
2023/08/05 10:43:00;;;;;;;4.63;2.80;;;;;;;;;;5052780;28;20104;-77
2023/08/05 10:45:26;;;;;;;2.83;2.28;;;;;;;;;;5053215;28;20104;-77
2023/08/05 10:47:53;;;;;;;3.55;2.25;;;;;;;;;;5052660;28;20025;-77
2023/08/05 10:50:19;;;;;;;2.80;2.42;;;;;;;;;;5052430;28;20035;-77
2023/08/05 10:52:45;;;;;;;2.70;2.50;;;;;;;;;;5054767;28;20079;-77
2023/08/05 10:55:15;;;;;;;2.88;2.60;;;;;;;;;;5052577;28;20076;-77
2023/08/05 10:57:41;;;;;;;2.92;2.30;;;;;;;;;;5052854;28;20021;-77
2023/08/05 11:00:07;;;;;;;3.28;2.67;;;;;;;;;;5052535;28;20036;-77
2023/08/05 11:02:34;;;;;;;3.08;2.63;;;;;;;;;;5052442;28;20021;-77
2023/08/05 11:05:09;;;;;;;3.15;2.58;;;;;;;;;;5052753;28;20025;-77
2023/08/05 11:07:38;;;;;;;3.38;2.55;;;;;;;;;;5052411;28;20666;-77
2023/08/05 11:10:04;;;;;;;5.18;2.85;;;;;;;;;;5051066;28;20025;-77
2023/08/05 11:12:31;;;;;;;3.88;2.70;;;;;;;;;;5052404;28;20021;-77
2023/08/05 11:14:57;;;;;;;4.30;2.90;;;;;;;;;;5052224;28;20381;-77
2023/08/05 11:17:23;;;;;;;5.35;3.08;;;;;;;;;;5051986;28;20092;-77
2023/08/05 11:19:50;;;;;;;3.47;2.90;;;;;;;;;;5052327;28;20040;-77
2023/08/05 11:22:26;;;;;;;3.92;2.80;;;;;;;;;;5052079;28;20522;-77
2023/08/05 11:24:56;;;;;;;3.08;2.80;;;;;;;;;;5052192;28;20028;-77
2023/08/05 11:27:29;;;;;;;4.30;2.80;;;;;;;;;;5038658;28;20021;-77
2023/08/05 11:29:55;;;;;;;4.22;2.75;;;;;;;;;;5052267;28;20063;-77
2023/08/05 11:32:20;;;;;;;3.10;2.85;;;;;;;;;;5052130;28;20053;-76
2023/08/05 11:34:48;;;;;;;3.90;2.65;;;;;;;;;;5064795;28;20486;-77
2023/08/05 11:37:14;;;;;;;3.33;2.85;;;;;;;;;;5065749;28;20021;-78
2023/08/05 11:39:40;;;;;;;3.80;2.65;;;;;;;;;;5052007;28;20036;-77
2023/08/05 11:42:07;;;;;;;4.43;3.15;;;;;;;;;;5032223;28;20032;-77
2023/08/05 11:44:33;;;;;;;3.25;2.95;;;;;;;;;;5032154;28;20025;-77
2023/08/05 11:47:03;;;;;;;3.38;2.80;;;;;;;;;;5032152;28;20053;-77
2023/08/05 11:49:29;;;;;;;5.10;3.35;;;;;;;;;;5043337;28;20023;-77
2023/08/05 11:51:55;;;;;;;3.92;3.50;;;;;;;;;;5052044;28;20445;-77
2023/08/05 11:54:32;;;;;;;5.85;3.30;;;;;;;;;;5051756;28;20036;-77
2023/08/05 11:56:58;;;;;;;6.05;3.42;;;;;;;;;;5040620;28;20115;-77
2023/08/05 11:59:44;;;;;;;4.82;3.60;;;;;;;;;;5051849;28;20021;-76
2023/08/05 12:02:12;;;;;;;5.40;3.65;;;;;;;;;;5051592;28;20020;-77
2023/08/05 12:04:44;;;;;;;4.03;3.63;;;;;;;;;;5051844;28;20021;-77
2023/08/05 12:07:18;;;;;;;4.30;3.85;;;;;;;;;;5054887;28;20032;-77
2023/08/05 12:09:45;;;;;;;5.47;3.72;;;;;;;;;;5053790;28;20498;-77
2023/08/05 12:12:17;;;;;;;4.10;3.70;;;;;;;;;;5055760;28;20021;-76
2023/08/05 12:14:43;;;;;;;5.45;4.03;;;;;;;;;;5055532;28;20022;-76
2023/08/05 12:17:10;;;;;;;4.75;4.00;;;;;;;;;;5054291;28;20499;-76
2023/08/05 12:19:36;;;;;;;5.03;3.75;;;;;;;;;;5055654;28;20025;-77
2023/08/05 12:22:02;;;;;;;6.35;4.20;;;;;;;;;;5055395;28;20526;-77
2023/08/05 12:24:28;;;;;;;4.18;3.80;;;;;;;;;;5055527;28;20029;-77
2023/08/05 12:26:54;;;;;;;4.53;3.53;;;;;;;;;;5055459;28;20494;-77
2023/08/05 12:29:20;;;;;;;4.45;3.80;;;;;;;;;;5055470;28;20025;-77
2023/08/05 12:31:46;;;;;;;3.90;3.50;;;;;;;;;;5055618;28;20025;-77
2023/08/05 12:34:12;;;;;;;4.07;3.63;;;;;;;;;;5055063;28;20046;-78
2023/08/05 12:36:38;;;;;;;3.75;3.40;;;;;;;;;;5067111;28;20039;-77
2023/08/05 12:39:06;;;;;;;3.45;3.15;;;;;;;;;;5075778;28;20025;-78
2023/08/05 12:41:32;;;;;;;4.05;3.65;;;;;;;;;;5060707;28;20021;-77
2023/08/05 12:43:59;;;;;;;8.10;4.63;;;;;;;;;;5055168;28;20024;-77
2023/08/05 12:46:25;;;;;;;4.72;4.32;;;;;;;;;;5055032;28;20693;-77
2023/08/05 12:48:51;;;;;;;5.28;4.57;;;;;;;;;;5065199;28;20615;-77
2023/08/05 12:51:17;;;;;;;9.15;5.00;;;;;;;;;;5055085;28;20480;-77
2023/08/05 12:53:43;;;;;;;4.90;4.50;;;;;;;;;;5055376;28;20408;-77
2023/08/05 12:56:09;;;;;;;3.75;1.88;;;;;;;;;;5065502;28;20078;-77
2023/08/05 12:58:35;;;;;;;1.42;1.33;;;;;;;;;;5074946;28;20025;-76
2023/08/05 13:01:01;;;;;;;3.70;1.80;;;;;;;;;;5074804;28;20417;-77
2023/08/05 13:03:27;;;;;;;7.03;2.13;;;;;;;;;;5070452;28;20032;-77
2023/08/05 13:05:53;;;;;;;5.50;2.50;;;;;;;;;;5049993;28;20033;-76
2023/08/05 13:08:19;;;;;;;3.05;1.65;;;;;;;;;;5036989;28;20076;-77
2023/08/05 13:10:47;;;;;;;2.72;1.83;;;;;;;;;;5054801;28;20024;-77
2023/08/05 13:13:12;;;;;;;4.15;2.10;;;;;;;;;;5054707;28;20025;-76
2023/08/05 13:15:38;;;;;;;3.72;1.70;;;;;;;;;;5054341;28;20055;-76
2023/08/05 13:18:04;;;;;;;4.45;2.08;;;;;;;;;;5053427;28;20049;-75
2023/08/05 13:20:30;;;;;;;2.22;2.03;;;;;;;;;;5054516;28;20048;-76
2023/08/05 13:22:56;;;;;;;2.13;1.80;;;;;;;;;;5045884;28;20026;-76
2023/08/05 13:25:22;;;;;;;2.50;1.80;;;;;;;;;;5043178;28;20036;-76
2023/08/05 13:27:49;;;;;;;2.40;2.20;;;;;;;;;;5042909;28;20517;-75
2023/08/05 13:30:15;;;;;;;3.25;2.28;;;;;;;;;;5054144;28;20050;-75
2023/08/05 13:32:41;;;;;;;2.53;2.33;;;;;;;;;;5054260;28;20388;-76
2023/08/05 13:35:07;;;;;;;2.75;2.55;;;;;;;;;;5051804;28;20476;-76
2023/08/05 13:37:34;;;;;;;3.88;2.70;;;;;;;;;;5054474;28;20031;-76
2023/08/05 13:40:00;;;;;;;3.10;2.80;;;;;;;;;;5048893;28;20045;-76
2023/08/05 13:42:26;;;;;;;3.45;2.85;;;;;;;;;;5034354;28;20021;-76
2023/08/05 13:44:52;;;;;;;4.15;3.10;;;;;;;;;;5041746;28;20029;-76
2023/08/05 13:47:18;;;;;;;4.30;3.00;;;;;;;;;;5045059;28;20079;-76
2023/08/05 13:49:44;;;;;;;3.42;2.90;;;;;;;;;;5041005;28;20025;-76
2023/08/05 13:52:10;;;;;;;4.05;3.10;;;;;;;;;;5033466;28;20057;-76
2023/08/05 13:54:36;;;;;;;6.15;3.22;;;;;;;;;;5033427;28;20056;-76
2023/08/05 13:57:02;;;;;;;5.10;3.20;;;;;;;;;;5041942;28;20033;-76
2023/08/05 13:59:28;;;;;;;4.55;3.42;;;;;;;;;;5053726;28;20027;-76
2023/08/05 14:01:54;;;;;;;3.75;2.95;;;;;;;;;;5053869;28;20352;-77
2023/08/05 14:04:20;;;;;;;4.45;3.65;;;;;;;;;;5053589;28;20033;-77
2023/08/05 14:06:46;;;;;;;3.60;3.30;;;;;;;;;;5053562;28;20060;-77
2023/08/05 14:09:13;;;;;;;5.30;3.50;;;;;;;;;;5053342;28;20029;-77
2023/08/05 14:11:39;;;;;;;5.35;3.70;;;;;;;;;;5053512;28;20391;-76
2023/08/05 14:14:05;;;;;;;4.78;3.72;;;;;;;;;;5053363;28;20471;-76
2023/08/05 14:16:31;;;;;;;8.15;3.63;;;;;;;;;;5051941;28;20116;-76
2023/08/05 14:18:57;;;;;;;7.72;4.55;;;;;;;;;;5052170;28;20029;-77
2023/08/05 14:21:23;;;;;;;9.75;4.30;;;;;;;;;;5040723;28;20084;-76
2023/08/05 14:23:49;;;;;;;6.10;4.00;;;;;;;;;;5034243;28;20052;-77
2023/08/05 14:26:15;;;;;;;5.80;4.05;;;;;;;;;;5042404;28;20033;-77
2023/08/05 14:28:41;;;;;;;4.60;2.97;;;;;;;;;;5052986;28;20032;-76
2023/08/05 14:31:07;;;;;;;3.33;2.80;;;;;;;;;;5048247;28;20485;-76
2023/08/05 14:33:33;;;;;;;3.88;3.03;;;;;;;;;;5053000;28;20298;-76
2023/08/05 14:35:59;;;;;;;6.60;3.50;;;;;;;;;;5053313;28;20061;-76
2023/08/05 14:38:26;;;;;;;6.47;3.38;;;;;;;;;;5053244;28;20021;-76